Terminal Aerodrome Forecast
Issued by NWS Cleveland, OH

Home | Current Version | Previous Version | Graphics & Text | Print | Product List | Glossary Off
Versions: 1 2 3 4 5 6 7 8 9 10 11 12 13 14 15 16 17 18 19 20 21 22 23 24 25

000
FTUS41 KCLE 281139
TAFCLE
TAF
KCLE 281139Z 2812/2918 20003KT P6SM SCT150 BKN250
     FM281600 02008KT P6SM SCT060 BKN200
     FM290200 VRB03KT P6SM BKN180=

USA.gov is the U.S. government's official web portal to all federal, state and local government web resources and services.